Time;durP1;ratioP1;P1;durP2;ratioP2;P2;SDS_P1;SDS_P2;PMS_P1;PMS_P2;Temp;Humidity;BMP_temperature;BMP_pressure;BME280_temperature;BME280_humidity;BME280_pressure;Samples;Min_cycle;Max_cycle;Signal;HPM_P1;HPM_P2
2022/03/10 00:00:11;;;;;;;34.13;17.95;;;3.60;59.50;;;;;;4958219;29;20051;-75
2022/03/10 04:44:10;;;;;;;32.53;16.75;;;0.50;90.00;;;;;;5523878;23;20314;-76
2022/03/10 04:46:37;;;;;;;30.80;16.30;;;0.50;90.10;;;;;;4953621;29;20052;-75
2022/03/10 04:49:05;;;;;;;33.95;17.58;;;0.50;90.10;;;;;;4940305;29;20132;-77
2022/03/10 04:51:32;;;;;;;34.72;18.10;;;0.50;90.10;;;;;;4939654;29;20051;-75
2022/03/10 04:53:59;;;;;;;33.20;17.00;;;0.50;90.00;;;;;;4948733;29;20055;-76
2022/03/10 04:56:26;;;;;;;32.53;16.05;;;0.40;89.90;;;;;;4941190;29;20047;-75
2022/03/10 04:58:53;;;;;;;30.25;16.15;;;0.40;90.10;;;;;;4939860;29;20130;-75
2022/03/10 05:01:22;;;;;;;33.25;16.23;;;0.40;90.00;;;;;;4939998;29;20142;-75
2022/03/10 05:03:50;;;;;;;31.92;16.55;;;0.40;90.20;;;;;;4950957;29;20051;-76
2022/03/10 05:06:17;;;;;;;28.88;15.50;;;0.50;90.30;;;;;;4953689;29;20050;-78
2022/03/10 05:08:44;;;;;;;32.42;16.77;;;0.50;90.60;;;;;;4957691;29;20054;-76
2022/03/10 05:11:11;;;;;;;29.25;16.33;;;0.50;90.40;;;;;;4948157;29;20549;-76
2022/03/10 05:13:38;;;;;;;31.88;16.65;;;0.50;90.40;;;;;;4939276;29;20051;-77
2022/03/10 05:16:06;;;;;;;34.03;16.67;;;0.50;90.30;;;;;;4956293;29;20051;-79
2022/03/10 05:18:34;;;;;;;33.97;16.85;;;0.60;90.30;;;;;;4954127;28;20086;-77
2022/03/10 05:21:01;;;;;;;33.60;17.52;;;0.50;90.50;;;;;;4951079;29;20138;-77
2022/03/10 05:23:28;;;;;;;33.78;16.73;;;0.50;90.20;;;;;;4958742;29;20047;-76
2022/03/10 05:25:55;;;;;;;34.28;17.30;;;0.50;90.20;;;;;;4957428;29;20047;-76
2022/03/10 05:28:23;;;;;;;32.28;16.88;;;0.40;90.40;;;;;;4957002;29;20043;-76
2022/03/10 05:30:50;;;;;;;30.10;16.10;;;0.40;90.40;;;;;;4940517;29;20052;-76
2022/03/10 05:33:17;;;;;;;31.67;16.85;;;0.40;90.40;;;;;;4950690;28;20377;-76
2022/03/10 05:35:45;;;;;;;30.17;16.23;;;0.30;90.50;;;;;;4938387;29;20065;-76
2022/03/10 05:38:12;;;;;;;30.83;15.73;;;0.30;90.60;;;;;;4937697;29;20070;-77
2022/03/10 05:40:40;;;;;;;33.03;16.65;;;0.30;90.80;;;;;;4938315;29;20058;-77
2022/03/10 05:43:07;;;;;;;33.28;16.65;;;0.30;90.90;;;;;;4938015;29;20102;-76
2022/03/10 05:45:34;;;;;;;33.58;17.40;;;0.30;91.00;;;;;;4956502;29;20082;-76
2022/03/10 05:48:01;;;;;;;31.25;17.02;;;0.20;91.00;;;;;;4957046;29;20079;-76
2022/03/10 05:50:29;;;;;;;35.42;16.77;;;0.20;91.10;;;;;;4956853;29;20055;-77
2022/03/10 05:52:57;;;;;;;30.88;15.80;;;0.20;91.50;;;;;;4957917;29;20055;-76
2022/03/10 05:55:26;;;;;;;33.17;16.88;;;0.20;91.40;;;;;;4957601;29;20051;-77
2022/03/10 05:57:53;;;;;;;32.33;16.83;;;0.20;91.40;;;;;;4956640;29;20053;-76
2022/03/10 06:00:20;;;;;;;30.92;15.80;;;0.20;91.30;;;;;;4955725;28;20055;-76
2022/03/10 06:02:47;;;;;;;33.05;16.95;;;0.10;91.30;;;;;;4956413;29;20382;-76
2022/03/10 06:05:14;;;;;;;34.90;16.52;;;0.10;91.40;;;;;;4958149;29;20146;-76
2022/03/10 06:07:41;;;;;;;31.58;16.45;;;0.00;91.50;;;;;;4957126;29;20420;-77
2022/03/10 06:10:10;;;;;;;29.67;15.55;;;-0.20;91.80;;;;;;4957076;29;20073;-76
2022/03/10 06:12:38;;;;;;;27.73;15.47;;;-0.30;92.10;;;;;;4956528;29;20055;-77
2022/03/10 06:15:08;;;;;;;32.20;15.67;;;-0.40;92.50;;;;;;4956881;29;20047;-76
2022/03/10 06:17:35;;;;;;;33.33;16.23;;;-0.50;92.60;;;;;;4957408;29;20489;-76
2022/03/10 06:20:03;;;;;;;31.83;16.80;;;-0.50;92.70;;;;;;4957406;29;20053;-76
2022/03/10 06:22:32;;;;;;;32.88;16.65;;;-0.60;93.00;;;;;;4956760;29;20133;-76
2022/03/10 06:25:00;;;;;;;34.10;17.77;;;-0.60;93.30;;;;;;4956997;29;20051;-76
2022/03/10 06:27:28;;;;;;;35.17;17.57;;;-0.60;93.40;;;;;;4956623;29;20055;-76
2022/03/10 06:29:56;;;;;;;32.53;17.20;;;-0.60;93.30;;;;;;4956910;29;20560;-76
2022/03/10 06:32:25;;;;;;;35.07;17.40;;;-0.60;93.40;;;;;;4956901;29;20053;-76
2022/03/10 06:34:55;;;;;;;29.27;16.02;;;-0.60;93.40;;;;;;4956556;29;20047;-76
2022/03/10 06:37:22;;;;;;;32.13;16.23;;;-0.50;93.40;;;;;;4957403;29;20138;-76
2022/03/10 06:39:49;;;;;;;30.33;15.48;;;-0.50;93.30;;;;;;4956744;29;20055;-77
2022/03/10 06:42:16;;;;;;;29.83;15.25;;;-0.50;93.30;;;;;;4956697;29;20476;-77
2022/03/10 06:44:45;;;;;;;30.70;15.95;;;-0.50;93.40;;;;;;4956456;29;20138;-77
2022/03/10 06:47:12;;;;;;;30.93;15.17;;;-0.40;93.30;;;;;;4956229;29;20138;-76
2022/03/10 06:49:40;;;;;;;30.73;15.65;;;-0.40;93.40;;;;;;4956711;28;20059;-77
2022/03/10 06:52:09;;;;;;;32.38;16.23;;;-0.30;93.50;;;;;;4955903;29;20047;-77
2022/03/10 06:54:37;;;;;;;32.45;16.38;;;-0.20;93.00;;;;;;4956486;29;20054;-77
2022/03/10 06:57:05;;;;;;;30.63;15.82;;;-0.10;92.70;;;;;;4956763;29;20059;-76
2022/03/10 06:59:32;;;;;;;30.17;16.10;;;0.00;92.80;;;;;;4956481;29;20061;-75
2022/03/10 07:02:00;;;;;;;30.83;16.17;;;0.10;92.90;;;;;;4956699;29;20047;-76
2022/03/10 07:04:27;;;;;;;31.00;15.98;;;0.20;93.00;;;;;;4955245;29;20050;-76
2022/03/10 07:06:54;;;;;;;31.45;15.77;;;0.20;92.90;;;;;;4955961;29;20481;-76
2022/03/10 07:09:21;;;;;;;32.40;16.13;;;0.30;93.10;;;;;;4955689;29;20058;-76
2022/03/10 07:11:48;;;;;;;35.45;17.60;;;0.40;92.80;;;;;;4955718;29;20054;-77
2022/03/10 07:14:15;;;;;;;33.95;17.02;;;0.50;92.70;;;;;;4955837;29;20047;-76
2022/03/10 07:16:43;;;;;;;34.65;17.67;;;0.60;92.50;;;;;;4955351;29;20150;-77
2022/03/10 07:19:12;;;;;;;38.35;18.50;;;0.60;92.40;;;;;;4955983;29;20481;-76
2022/03/10 07:21:40;;;;;;;36.47;18.50;;;0.70;92.50;;;;;;4955999;29;20051;-77
2022/03/10 07:24:08;;;;;;;35.65;18.77;;;0.70;92.30;;;;;;4955916;29;20048;-77
2022/03/10 07:26:35;;;;;;;32.78;16.83;;;0.70;92.10;;;;;;4955665;29;20052;-76
2022/03/10 07:29:03;;;;;;;31.20;17.05;;;0.70;91.90;;;;;;4955620;29;20146;-76
2022/03/10 07:31:31;;;;;;;34.65;17.52;;;0.70;91.70;;;;;;4954865;29;20047;-77
2022/03/10 07:33:58;;;;;;;32.72;17.95;;;0.70;91.80;;;;;;4954760;29;20047;-77
2022/03/10 07:36:28;;;;;;;30.60;16.40;;;0.70;91.90;;;;;;4955747;29;20579;-76
2022/03/10 07:38:55;;;;;;;35.60;17.67;;;0.80;91.80;;;;;;4955271;29;20083;-76
2022/03/10 07:41:22;;;;;;;32.95;16.65;;;0.90;91.60;;;;;;4955035;29;20059;-74
2022/03/10 07:43:50;;;;;;;31.33;16.02;;;1.00;91.60;;;;;;4954962;29;20059;-75
2022/03/10 07:46:22;;;;;;;32.50;16.05;;;1.10;91.20;;;;;;4954728;29;20503;-74
2022/03/10 07:48:50;;;;;;;32.03;15.98;;;1.10;91.00;;;;;;4954695;29;20098;-75
2022/03/10 07:51:17;;;;;;;32.10;16.05;;;1.20;90.90;;;;;;4954614;29;20079;-74
2022/03/10 07:53:46;;;;;;;31.38;16.00;;;1.30;90.70;;;;;;4955160;29;20043;-76
2022/03/10 07:56:13;;;;;;;32.83;16.35;;;1.40;90.50;;;;;;4954661;29;20134;-75
2022/03/10 07:58:40;;;;;;;28.67;15.18;;;1.50;90.50;;;;;;4954226;29;20051;-76
2022/03/10 08:01:07;;;;;;;28.05;15.88;;;1.60;90.50;;;;;;4947486;29;20047;-74
2022/03/10 08:03:34;;;;;;;25.60;15.00;;;1.70;90.50;;;;;;4953008;29;20050;-75
2022/03/10 08:06:01;;;;;;;30.02;16.33;;;1.80;90.40;;;;;;4958039;29;20047;-74
2022/03/10 08:08:28;;;;;;;30.83;15.77;;;1.90;90.10;;;;;;4957989;29;20129;-74
2022/03/10 08:10:56;;;;;;;27.58;15.52;;;2.00;89.70;;;;;;4957459;29;20052;-76
2022/03/10 08:13:26;;;;;;;28.73;15.93;;;2.20;89.20;;;;;;4957752;29;20484;-77
2022/03/10 08:15:53;;;;;;;30.85;16.30;;;2.30;88.30;;;;;;4957828;29;20047;-77
2022/03/10 08:18:21;;;;;;;31.55;16.60;;;2.40;87.60;;;;;;4957680;29;20055;-76
2022/03/10 08:20:48;;;;;;;30.52;16.42;;;2.50;86.90;;;;;;4930661;29;20051;-74
2022/03/10 08:23:16;;;;;;;29.95;16.00;;;2.60;86.10;;;;;;4937819;29;20048;-75
2022/03/10 08:25:44;;;;;;;27.58;15.75;;;2.70;85.90;;;;;;4938795;29;20063;-75
2022/03/10 08:28:13;;;;;;;30.92;16.08;;;2.70;85.70;;;;;;4938525;29;20134;-77
2022/03/10 08:30:40;;;;;;;28.60;15.82;;;2.80;85.60;;;;;;4938401;29;20118;-76
2022/03/10 08:33:07;;;;;;;30.42;16.45;;;2.90;86.00;;;;;;4938261;29;20417;-76
2022/03/10 08:35:34;;;;;;;30.38;16.20;;;3.00;85.90;;;;;;4938400;29;20054;-76
2022/03/10 08:38:02;;;;;;;29.08;15.82;;;3.10;85.60;;;;;;4948047;29;20073;-77
2022/03/10 08:40:29;;;;;;;30.55;15.90;;;3.20;85.20;;;;;;4954049;29;20174;-76
2022/03/10 08:42:56;;;;;;;28.08;15.70;;;3.30;84.10;;;;;;4954882;29;20134;-76
2022/03/10 08:45:25;;;;;;;27.02;15.07;;;3.40;83.30;;;;;;4972259;28;20061;-75
2022/03/10 08:47:53;;;;;;;33.00;15.60;;;3.50;82.70;;;;;;4968005;28;20058;-74
2022/03/10 08:50:21;;;;;;;27.92;15.25;;;3.50;82.10;;;;;;4973813;28;20596;-74
2022/03/10 08:52:48;;;;;;;29.70;16.05;;;3.60;81.90;;;;;;4973777;28;20054;-75
2022/03/10 08:55:15;;;;;;;26.67;14.10;;;3.70;81.60;;;;;;4973839;28;20050;-75
2022/03/10 08:57:43;;;;;;;25.23;14.73;;;3.80;81.20;;;;;;4973925;28;20642;-76
2022/03/10 09:00:12;;;;;;;26.80;15.18;;;3.90;80.60;;;;;;4956835;28;20142;-76
2022/03/10 09:02:41;;;;;;;25.13;14.38;;;4.00;80.40;;;;;;4954504;29;20058;-74
2022/03/10 09:05:09;;;;;;;27.42;15.32;;;4.10;80.20;;;;;;4954359;29;20133;-74
2022/03/10 09:07:36;;;;;;;28.35;15.63;;;4.20;79.60;;;;;;4954634;29;20051;-75
2022/03/10 09:10:05;;;;;;;30.90;15.73;;;4.30;79.20;;;;;;4954446;29;20416;-77
2022/03/10 09:12:32;;;;;;;28.00;14.57;;;4.40;79.00;;;;;;4954414;29;20067;-76
2022/03/10 09:14:59;;;;;;;26.67;15.48;;;4.40;78.70;;;;;;4953583;28;20136;-77
2022/03/10 09:17:27;;;;;;;23.33;13.82;;;4.50;77.80;;;;;;4954400;28;20134;-74
2022/03/10 09:19:55;;;;;;;25.10;15.15;;;4.60;77.90;;;;;;4954729;28;20051;-74
2022/03/10 09:22:25;;;;;;;29.75;16.73;;;4.70;77.30;;;;;;4954230;29;20051;-74
2022/03/10 09:24:52;;;;;;;26.30;15.45;;;4.80;76.80;;;;;;4954100;29;20102;-73
2022/03/10 09:27:20;;;;;;;27.55;16.23;;;4.90;76.50;;;;;;4953851;29;20051;-74
2022/03/10 09:29:47;;;;;;;26.70;14.88;;;4.90;76.20;;;;;;4946200;29;20055;-75
2022/03/10 09:32:14;;;;;;;25.70;14.45;;;5.10;76.20;;;;;;4954335;29;20078;-74
2022/03/10 09:34:41;;;;;;;26.55;14.45;;;5.10;75.90;;;;;;4953848;29;20505;-74
2022/03/10 09:37:11;;;;;;;27.80;14.98;;;5.20;75.50;;;;;;4954060;29;20047;-74
2022/03/10 09:39:38;;;;;;;25.67;13.73;;;5.30;74.90;;;;;;4953332;29;20158;-76
2022/03/10 09:42:06;;;;;;;23.63;13.52;;;5.40;74.80;;;;;;4953889;29;20051;-75
2022/03/10 09:44:36;;;;;;;26.55;15.10;;;5.50;74.50;;;;;;4953757;29;20146;-73
2022/03/10 09:47:04;;;;;;;26.85;14.75;;;5.60;73.80;;;;;;4951422;29;20047;-75
2022/03/10 09:49:34;;;;;;;22.95;13.35;;;5.80;73.80;;;;;;4954721;29;20055;-75
2022/03/10 09:52:02;;;;;;;25.30;14.15;;;5.90;73.60;;;;;;4954490;29;20047;-77
2022/03/10 09:54:30;;;;;;;27.23;15.15;;;6.00;73.10;;;;;;4955017;29;20062;-75
2022/03/10 09:56:58;;;;;;;26.58;14.25;;;6.10;71.90;;;;;;4954179;29;20061;-75
2022/03/10 09:59:28;;;;;;;26.95;15.10;;;6.20;71.80;;;;;;4953792;29;20053;-74
2022/03/10 10:01:56;;;;;;;26.17;14.68;;;6.30;71.40;;;;;;4953262;29;20154;-74
2022/03/10 10:04:24;;;;;;;24.90;13.60;;;6.40;70.90;;;;;;4953118;29;20117;-74
2022/03/10 10:07:00;;;;;;;19.73;12.65;;;6.50;70.80;;;;;;4953101;29;20091;-76
2022/03/10 10:09:42;;;;;;;21.15;11.80;;;6.70;70.50;;;;;;4953173;29;20051;-76
2022/03/10 10:12:11;;;;;;;21.80;12.43;;;6.80;69.90;;;;;;4953167;29;20490;-75
2022/03/10 10:14:40;;;;;;;18.13;11.27;;;7.00;69.40;;;;;;4952718;29;20126;-73
2022/03/10 10:17:07;;;;;;;19.45;11.23;;;7.10;69.20;;;;;;4952762;29;20051;-73
2022/03/10 10:19:36;;;;;;;24.25;13.75;;;7.20;68.80;;;;;;4952848;29;20051;-74
2022/03/10 10:22:12;;;;;;;21.08;12.43;;;7.30;67.90;;;;;;4953050;29;20146;-75
2022/03/10 10:24:41;;;;;;;19.90;12.02;;;7.40;67.70;;;;;;4952505;28;20504;-74
2022/03/10 10:27:15;;;;;;;19.02;11.25;;;7.60;67.50;;;;;;4952278;29;20480;-76
2022/03/10 10:29:48;;;;;;;20.98;11.52;;;7.80;67.20;;;;;;4952611;29;20051;-75
2022/03/10 10:32:27;;;;;;;18.02;10.32;;;8.00;66.30;;;;;;4952998;29;20053;-77
2022/03/10 10:35:10;;;;;;;17.63;10.45;;;8.10;66.00;;;;;;4953211;29;20061;-77
2022/03/10 10:37:39;;;;;;;16.63;8.93;;;8.30;65.60;;;;;;4952631;29;20480;-77
2022/03/10 10:40:10;;;;;;;14.35;7.40;;;8.50;64.10;;;;;;4952529;29;20094;-76
2022/03/10 10:42:42;;;;;;;10.55;6.13;;;8.60;62.20;;;;;;4953014;29;20058;-75
2022/03/10 10:45:28;;;;;;;5.38;2.97;;;8.90;60.40;;;;;;4966472;28;20050;-77
2022/03/10 10:48:03;;;;;;;4.95;2.38;;;9.20;56.00;;;;;;4970304;28;20134;-74
2022/03/10 10:50:32;;;;;;;5.18;2.60;;;9.50;55.10;;;;;;4971687;28;20051;-76
2022/03/10 10:53:00;;;;;;;5.80;2.47;;;9.70;53.40;;;;;;4971927;28;20054;-73
2022/03/10 10:55:37;;;;;;;4.93;2.20;;;9.90;52.90;;;;;;4971912;28;20066;-75
2022/03/10 10:58:11;;;;;;;5.70;2.80;;;10.10;51.90;;;;;;4972060;28;20086;-75
2022/03/10 11:00:43;;;;;;;;;;;10.20;51.30;;;;;;4972253;28;20054;-76
2022/03/10 11:03:22;;;;;;;4.07;2.13;;;10.40;50.50;;;;;;4972304;28;19929;-74
2022/03/10 11:05:50;;;;;;;4.72;2.70;;;10.50;50.70;;;;;;4964560;28;20061;-75
2022/03/10 11:08:18;;;;;;;6.78;3.15;;;10.60;50.30;;;;;;4971862;28;20169;-75
2022/03/10 11:10:47;;;;;;;6.20;2.72;;;10.80;49.90;;;;;;4971912;28;20054;-76
2022/03/10 11:13:14;;;;;;;6.00;2.90;;;10.90;48.90;;;;;;4971634;28;20141;-73
2022/03/10 11:15:43;;;;;;;6.55;2.80;;;11.00;48.10;;;;;;4969887;28;20057;-78
2022/03/10 11:18:12;;;;;;;5.40;2.78;;;11.10;47.10;;;;;;4971745;28;20057;-74
2022/03/10 11:20:44;;;;;;;4.35;2.30;;;11.10;46.40;;;;;;4971493;28;20074;-77
2022/03/10 11:23:32;;;;;;;4.78;2.55;;;11.20;46.50;;;;;;4971777;28;20411;-74
2022/03/10 11:26:08;;;;;;;4.78;2.70;;;11.40;48.80;;;;;;4971671;28;20468;-74
2022/03/10 11:28:38;;;;;;;4.28;2.30;;;11.40;45.40;;;;;;4971647;28;20078;-75
2022/03/10 11:31:07;;;;;;;4.80;2.35;;;11.40;45.10;;;;;;4969920;28;20389;-76
2022/03/10 11:33:37;;;;;;;4.45;2.25;;;11.40;45.70;;;;;;4971625;28;20157;-76
2022/03/10 11:36:21;;;;;;;4.65;2.45;;;11.50;45.40;;;;;;4971422;28;20133;-76
2022/03/10 11:38:53;;;;;;;;;;;11.70;45.50;;;;;;4976008;28;20047;-77
2022/03/10 11:41:25;;;;;;;4.30;2.20;;;11.70;45.10;;;;;;4975158;28;19926;-76
2022/03/10 11:43:58;;;;;;;4.05;2.05;;;11.80;44.10;;;;;;4975224;28;20109;-77
2022/03/10 11:46:27;;;;;;;3.75;1.92;;;11.80;43.80;;;;;;4971758;28;20051;-76
2022/03/10 11:49:07;;;;;;;3.83;2.10;;;11.90;43.60;;;;;;4975119;28;20448;-76
2022/03/10 11:51:47;;;;;;;4.65;2.30;;;11.90;42.80;;;;;;4975053;28;20511;-76
2022/03/10 11:54:18;;;;;;;5.05;2.50;;;12.00;42.70;;;;;;4975709;28;20055;-77
2022/03/10 11:57:09;;;;;;;3.90;2.00;;;12.00;42.40;;;;;;4975841;28;20057;-73
2022/03/10 11:59:47;;;;;;;4.22;2.38;;;;;;;;;;4975710;28;20054;-75
2022/03/10 12:02:43;;;;;;;4.50;2.50;;;12.20;42.40;;;;;;4975846;28;20102;-77
2022/03/10 12:05:13;;;;;;;4.82;2.55;;;12.30;42.90;;;;;;4954192;28;20463;-76
2022/03/10 12:07:44;;;;;;;4.72;2.58;;;12.40;42.60;;;;;;4975119;28;20061;-76
2022/03/10 12:10:14;;;;;;;4.40;2.13;;;12.50;42.50;;;;;;4975340;28;20130;-76
2022/03/10 12:12:45;;;;;;;4.28;2.30;;;12.60;42.70;;;;;;4975024;28;20480;-74
2022/03/10 12:15:50;;;;;;;5.00;2.42;;;12.70;42.70;;;;;;4973586;28;20050;-76
2022/03/10 12:18:24;;;;;;;4.85;2.38;;;12.80;42.60;;;;;;4975478;28;20078;-76
2022/03/10 12:20:54;;;;;;;5.45;2.30;;;13.00;41.90;;;;;;4975975;28;20146;-75
2022/03/10 12:23:25;;;;;;;4.65;2.40;;;13.10;41.90;;;;;;4973863;28;20400;-76
2022/03/10 12:25:57;;;;;;;4.00;2.28;;;13.20;41.80;;;;;;4974959;28;20042;-73
2022/03/10 12:28:31;;;;;;;4.25;2.20;;;13.30;40.50;;;;;;4974394;28;20050;-75
2022/03/10 12:31:05;;;;;;;4.32;2.33;;;13.40;40.40;;;;;;4974848;28;20057;-74
2022/03/10 12:33:33;;;;;;;4.80;2.28;;;13.50;40.30;;;;;;4974358;28;20053;-75
2022/03/10 12:36:01;;;;;;;4.78;2.15;;;13.70;39.90;;;;;;4974690;28;20046;-76
2022/03/10 12:38:41;;;;;;;5.68;2.78;;;13.80;40.10;;;;;;4974617;28;20047;-74
2022/03/10 12:41:08;;;;;;;4.60;2.70;;;14.00;40.10;;;;;;4974654;28;20174;-76
2022/03/10 12:43:37;;;;;;;5.05;2.75;;;14.10;39.40;;;;;;4974500;28;20173;-74
2022/03/10 12:46:05;;;;;;;5.28;2.78;;;14.20;39.20;;;;;;4970701;28;20047;-73
2022/03/10 12:48:48;;;;;;;5.28;2.90;;;14.40;39.00;;;;;;4973251;28;20134;-73
2022/03/10 12:51:23;;;;;;;5.05;2.78;;;14.50;38.70;;;;;;4974088;28;20054;-75
2022/03/10 12:53:52;;;;;;;5.15;3.17;;;14.70;38.60;;;;;;4974538;28;20070;-76
2022/03/10 12:56:19;;;;;;;5.38;3.00;;;14.80;38.20;;;;;;4974715;28;20050;-75
2022/03/10 12:58:50;;;;;;;5.15;2.78;;;15.00;37.90;;;;;;4974698;28;20426;-77
2022/03/10 13:01:18;;;;;;;5.32;3.20;;;15.10;37.90;;;;;;4974334;28;20530;-75
2022/03/10 13:03:50;;;;;;;6.45;3.13;;;15.20;37.40;;;;;;4973716;28;20050;-77
2022/03/10 13:06:18;;;;;;;6.25;3.10;;;15.30;37.40;;;;;;4974771;28;20400;-75
2022/03/10 13:08:53;;;;;;;6.55;3.70;;;15.40;37.20;;;;;;4974492;28;20053;-75
2022/03/10 13:11:22;;;;;;;5.95;3.08;;;15.60;37.00;;;;;;4974442;28;20141;-75
2022/03/10 13:14:05;;;;;;;5.78;2.85;;;15.70;36.70;;;;;;4974625;28;20057;-75
2022/03/10 13:16:37;;;;;;;5.93;3.17;;;15.90;35.70;;;;;;4974055;28;20058;-75
2022/03/10 13:19:04;;;;;;;5.40;3.05;;;15.90;35.30;;;;;;4974154;28;20053;-75
2022/03/10 13:21:32;;;;;;;5.13;2.70;;;16.00;35.50;;;;;;4973194;28;20523;-75
2022/03/10 13:23:59;;;;;;;5.63;3.25;;;16.20;35.50;;;;;;4974484;28;20515;-77
2022/03/10 13:26:26;;;;;;;6.40;3.78;;;16.40;35.70;;;;;;4973698;28;20061;-76
2022/03/10 13:28:54;;;;;;;6.13;3.72;;;16.60;35.10;;;;;;4973228;28;20058;-75
2022/03/10 13:31:29;;;;;;;6.15;3.53;;;16.70;35.30;;;;;;4973858;28;20043;-74
2022/03/10 13:33:57;;;;;;;6.78;3.95;;;16.90;35.30;;;;;;4973970;28;20137;-74
2022/03/10 13:36:25;;;;;;;6.82;4.00;;;17.10;35.00;;;;;;4973451;28;20051;-75
2022/03/10 13:38:52;;;;;;;6.72;3.72;;;17.30;34.50;;;;;;4974120;28;20047;-75
2022/03/10 13:41:20;;;;;;;8.23;3.70;;;17.50;33.90;;;;;;4973494;28;20055;-74
2022/03/10 13:43:47;;;;;;;7.75;4.03;;;17.70;33.90;;;;;;4973579;28;20054;-74
2022/03/10 13:46:17;;;;;;;7.35;3.85;;;18.00;33.90;;;;;;4970333;28;20242;-74
2022/03/10 13:48:50;;;;;;;6.57;3.85;;;18.20;33.00;;;;;;4973165;28;20082;-76
2022/03/10 13:51:20;;;;;;;6.75;3.90;;;18.30;32.70;;;;;;4972716;28;20076;-74
2022/03/10 13:54:00;;;;;;;6.57;3.95;;;18.60;32.70;;;;;;4973186;28;20065;-75
2022/03/10 13:56:35;;;;;;;6.20;4.00;;;;;;;;;;4973479;28;20062;-75
2022/03/10 13:59:04;;;;;;;8.48;4.15;;;19.30;31.00;;;;;;4973866;28;20480;-75
2022/03/10 14:01:31;;;;;;;6.47;4.22;;;19.40;31.50;;;;;;4972925;28;20078;-75
2022/03/10 14:04:00;;;;;;;7.03;3.95;;;19.50;31.30;;;;;;4971096;28;20074;-76
2022/03/10 14:06:28;;;;;;;7.13;4.13;;;19.60;31.20;;;;;;4972413;28;20050;-75
2022/03/10 14:08:55;;;;;;;7.95;4.32;;;19.90;31.30;;;;;;4973198;28;20404;-76
2022/03/10 14:11:28;;;;;;;5.63;3.78;;;20.30;31.30;;;;;;4974017;28;20139;-75
2022/03/10 14:14:02;;;;;;;5.47;3.50;;;20.90;31.20;;;;;;4973886;28;20054;-75
2022/03/10 14:16:31;;;;;;;6.73;3.63;;;21.70;29.90;;;;;;4973450;28;20057;-76
2022/03/10 14:19:02;;;;;;;6.85;3.90;;;22.80;28.90;;;;;;4973456;28;20054;-74
2022/03/10 14:21:29;;;;;;;5.53;3.50;;;24.30;28.40;;;;;;4972882;28;20061;-74
2022/03/10 14:23:58;;;;;;;5.72;3.72;;;;;;;;;;4973323;28;20058;-75
2022/03/10 14:26:25;;;;;;;6.07;3.75;;;30.90;26.00;;;;;;4973110;28;20051;-74
2022/03/10 14:28:55;;;;;;;5.28;3.53;;;32.80;25.60;;;;;;4972850;28;20066;-75
2022/03/10 14:31:25;;;;;;;5.20;3.70;;;;;;;;;;4972598;28;20046;-77
2022/03/10 14:33:53;;;;;;;5.47;3.78;;;;;;;;;;4958057;28;20051;-77
2022/03/10 14:36:23;;;;;;;4.80;3.38;;;;;;;;;;4953078;29;20047;-76
2022/03/10 14:38:52;;;;;;;5.13;3.78;;;;;;;;;;4953931;29;20055;-76
2022/03/10 14:41:21;;;;;;;5.97;3.97;;;;;;;;;;4953810;28;20489;-79
2022/03/10 14:43:49;;;;;;;4.75;3.60;;;;;;;;;;4953480;29;20113;-78
2022/03/10 14:46:16;;;;;;;5.05;3.65;;;;;;;;;;4951586;29;20586;-76
2022/03/10 14:48:44;;;;;;;5.43;3.55;;;;;;;;;;4953498;29;20050;-76
2022/03/10 14:51:12;;;;;;;5.88;3.67;;;;;;;;;;4952379;29;20049;-76
2022/03/10 14:53:41;;;;;;;5.05;3.30;;;;;;;;;;4953346;29;20051;-77
2022/03/10 14:56:09;;;;;;;5.65;3.75;;;;;;;;;;4953456;29;20149;-76
2022/03/10 14:58:38;;;;;;;4.85;3.55;;;;;;;;;;4953533;29;20121;-77
2022/03/10 15:01:07;;;;;;;5.50;3.53;;;;;;;;;;4953312;29;20047;-77
2022/03/10 15:03:34;;;;;;;5.95;3.58;;;;;;;;;;4952492;29;20057;-78
2022/03/10 15:06:02;;;;;;;4.90;3.65;;;;;;;;;;4953071;29;20139;-76
2022/03/10 15:08:29;;;;;;;5.25;3.30;;;;;;;;;;4953143;29;20055;-77
2022/03/10 15:11:01;;;;;;;4.40;3.22;;;45.00;21.50;;;;;;4954126;29;20107;-74
2022/03/10 15:13:29;;;;;;;6.15;4.47;;;44.70;21.60;;;;;;4958039;29;20059;-74
2022/03/10 15:15:56;;;;;;;5.22;3.58;;;44.90;21.60;;;;;;4955724;29;20078;-78
2022/03/10 15:18:23;;;;;;;5.65;3.80;;;44.60;21.50;;;;;;4956806;29;20047;-75
2022/03/10 15:20:51;;;;;;;4.28;3.28;;;44.60;21.70;;;;;;4950083;29;20078;-76
2022/03/10 15:23:18;;;;;;;5.25;3.50;;;44.80;21.60;;;;;;4953410;29;20416;-75
2022/03/10 15:25:45;;;;;;;4.85;3.30;;;44.90;21.50;;;;;;4955676;29;20114;-77
2022/03/10 15:28:14;;;;;;;5.70;3.53;;;44.70;21.30;;;;;;4953053;29;20059;-74
2022/03/10 15:30:42;;;;;;;5.72;3.42;;;44.50;21.30;;;;;;4953437;29;20055;-76
2022/03/10 15:33:10;;;;;;;4.47;3.20;;;44.00;21.10;;;;;;4951794;29;20493;-79
2022/03/10 15:35:37;;;;;;;6.50;3.22;;;43.70;21.20;;;;;;4952836;29;20066;-74
2022/03/10 15:38:04;;;;;;;5.55;3.45;;;43.60;21.20;;;;;;4952432;29;20170;-75
2022/03/10 15:40:32;;;;;;;5.30;3.75;;;43.10;21.10;;;;;;4953063;29;20052;-77
2022/03/10 15:43:01;;;;;;;4.30;3.15;;;43.20;21.10;;;;;;4952508;29;20054;-76
2022/03/10 15:45:30;;;;;;;4.57;3.40;;;42.90;20.90;;;;;;4952193;28;20059;-75
2022/03/10 15:47:58;;;;;;;5.63;3.80;;;42.60;21.00;;;;;;4950090;29;20055;-77
2022/03/10 15:50:25;;;;;;;4.90;3.75;;;42.40;21.10;;;;;;4953493;29;20106;-75
2022/03/10 15:52:53;;;;;;;5.13;3.70;;;41.90;21.10;;;;;;4958798;29;20063;-76
2022/03/10 15:55:21;;;;;;;5.50;3.97;;;41.90;21.30;;;;;;4952431;29;20048;-76
2022/03/10 15:57:49;;;;;;;4.97;3.90;;;42.20;21.40;;;;;;4950745;29;20083;-76
2022/03/10 16:00:18;;;;;;;5.80;4.45;;;42.00;21.20;;;;;;4950863;29;20129;-76
2022/03/10 16:02:46;;;;;;;5.30;4.30;;;41.40;21.10;;;;;;4951979;29;20051;-77
2022/03/10 16:05:16;;;;;;;6.72;4.50;;;40.80;21.30;;;;;;4950721;29;20050;-77
2022/03/10 16:07:43;;;;;;;6.57;4.60;;;40.30;21.20;;;;;;4951529;29;20539;-77
2022/03/10 16:10:13;;;;;;;6.25;4.60;;;39.90;21.30;;;;;;4950778;29;20130;-77
2022/03/10 16:12:41;;;;;;;6.97;4.80;;;39.20;21.20;;;;;;4951510;29;20055;-73
2022/03/10 16:15:09;;;;;;;5.85;4.60;;;38.30;20.90;;;;;;4951325;29;20059;-75
2022/03/10 16:17:37;;;;;;;6.15;4.80;;;;;;;;;;4953059;29;20545;-75
2022/03/10 16:20:07;;;;;;;6.88;4.65;;;;;;;;;;4953015;29;20051;-74
2022/03/10 16:22:39;;;;;;;6.00;4.65;;;;;;;;;;4954867;28;20138;-74
2022/03/10 16:25:07;;;;;;;6.75;4.28;;;;;;;;;;4957990;29;20525;-74
2022/03/10 16:27:35;;;;;;;5.85;4.28;;;;;;;;;;4942676;29;20043;-74
2022/03/10 16:30:03;;;;;;;7.03;4.25;;;;;;;;;;4959182;29;20082;-72
2022/03/10 16:32:30;;;;;;;6.78;4.20;;;35.90;21.10;;;;;;4955944;29;20053;-74
2022/03/10 16:34:57;;;;;;;6.07;4.30;;;35.20;21.40;;;;;;4954992;29;20477;-74
2022/03/10 16:37:26;;;;;;;6.70;4.03;;;34.20;21.30;;;;;;4956091;29;20058;-74
2022/03/10 16:39:53;;;;;;;5.88;4.10;;;33.70;21.50;;;;;;4955218;29;20412;-73
2022/03/10 16:42:20;;;;;;;6.13;4.07;;;33.30;21.50;;;;;;4959298;29;20142;-74
2022/03/10 16:44:47;;;;;;;6.72;4.07;;;32.40;21.30;;;;;;4965912;28;20065;-73
2022/03/10 16:47:15;;;;;;;5.40;3.90;;;32.30;21.70;;;;;;4966437;28;20106;-76
2022/03/10 16:49:42;;;;;;;6.63;4.30;;;31.90;21.80;;;;;;4964844;28;20110;-75
2022/03/10 16:52:13;;;;;;;6.75;4.13;;;31.60;22.00;;;;;;4966244;28;20051;-73
2022/03/10 16:54:43;;;;;;;7.07;4.10;;;31.00;21.90;;;;;;4977804;28;20444;-74
2022/03/10 16:57:11;;;;;;;7.03;4.20;;;30.40;22.40;;;;;;4975092;28;20101;-77
2022/03/10 16:59:38;;;;;;;5.80;3.90;;;29.60;22.10;;;;;;4969347;28;20086;-75
2022/03/10 17:02:06;;;;;;;5.93;3.70;;;28.80;22.20;;;;;;4969451;28;20051;-76
2022/03/10 17:04:35;;;;;;;6.13;3.80;;;28.10;22.20;;;;;;4974082;28;20090;-77
2022/03/10 17:07:03;;;;;;;5.75;3.22;;;27.40;22.40;;;;;;4974488;28;20050;-75
2022/03/10 17:09:30;;;;;;;5.28;3.70;;;26.50;22.40;;;;;;4974425;28;20065;-77
2022/03/10 17:11:59;;;;;;;7.80;3.80;;;25.50;28.90;;;;;;4974695;28;20043;-75
2022/03/10 17:14:26;;;;;;;5.53;3.65;;;24.50;22.70;;;;;;4978749;28;20577;-73
2022/03/10 17:16:54;;;;;;;5.60;3.50;;;23.60;23.00;;;;;;4983259;28;20743;-74
2022/03/10 17:19:21;;;;;;;5.93;3.40;;;22.70;23.20;;;;;;4978053;28;20166;-74
2022/03/10 17:21:48;;;;;;;6.13;3.65;;;21.80;23.70;;;;;;4973884;28;20138;-77
2022/03/10 17:24:15;;;;;;;6.30;3.20;;;21.00;23.90;;;;;;4973676;28;20055;-76
2022/03/10 17:26:42;;;;;;;6.43;3.55;;;20.30;24.30;;;;;;4974076;28;20126;-75
2022/03/10 17:29:11;;;;;;;5.20;3.47;;;19.60;24.80;;;;;;4973267;28;20141;-75
2022/03/10 17:31:39;;;;;;;6.85;3.40;;;18.90;25.10;;;;;;4961066;28;20051;-77
2022/03/10 17:34:06;;;;;;;6.35;3.75;;;18.40;25.50;;;;;;4962689;28;20051;-76
2022/03/10 17:36:33;;;;;;;5.70;3.63;;;17.80;25.80;;;;;;4971361;28;20400;-75
2022/03/10 17:39:00;;;;;;;7.40;3.88;;;17.30;26.10;;;;;;4967693;28;20057;-74
2022/03/10 17:41:27;;;;;;;6.15;3.70;;;16.80;26.30;;;;;;4969455;28;20480;-77